createdAt,value
2019-03-13T00:00:21.551Z,89.23
2019-03-13T00:01:23.728Z,88.82
2019-03-13T00:02:21.529Z,88.20
2019-03-13T00:03:21.519Z,88.65
2019-03-13T00:04:21.509Z,90.52
2019-03-13T00:05:21.497Z,90.14
2019-03-13T00:06:21.487Z,89.38
2019-03-13T00:07:21.495Z,88.28
2019-03-13T00:08:21.465Z,88.24
2019-03-13T00:09:21.455Z,89.48
2019-03-13T00:10:21.445Z,87.31
2019-03-13T00:11:21.433Z,88.76
2019-03-13T00:12:21.423Z,89.73
2019-03-13T00:13:21.426Z,89.22
2019-03-13T00:14:21.400Z,88.39
2019-03-13T00:15:21.391Z,89.83
2019-03-13T00:16:21.381Z,89.56
2019-03-13T00:17:21.370Z,89.87
2019-03-13T00:18:21.360Z,89.87
2019-03-13T00:19:21.365Z,91.01
2019-03-13T00:20:21.336Z,89.56
2019-03-13T00:21:21.327Z,89.81
2019-03-13T00:22:21.314Z,90.64
2019-03-13T00:23:21.302Z,90.95
2019-03-13T00:24:21.295Z,90.95
2019-03-13T00:25:21.304Z,90.64
2019-03-13T00:26:21.273Z,90.64
2019-03-13T00:27:21.268Z,90.23
2019-03-13T00:28:21.247Z,91.16
2019-03-13T00:29:21.237Z,90.64
2019-03-13T00:30:21.233Z,90.33
2019-03-13T00:31:21.234Z,90.53
2019-03-13T00:32:21.206Z,90.64
2019-03-13T00:33:21.238Z,91.05
2019-03-13T00:34:21.188Z,91.67
2019-03-13T00:35:21.172Z,89.61
2019-03-13T00:36:21.165Z,89.81
2019-03-13T00:37:21.169Z,89.81
2019-03-13T00:38:21.139Z,89.92
2019-03-13T00:39:21.133Z,89.61
2019-03-13T00:40:21.125Z,88.88
2019-03-13T00:41:21.109Z,87.99
2019-03-13T00:42:21.102Z,88.92
2019-03-13T00:43:21.104Z,88.92
2019-03-13T00:44:21.078Z,87.47
2019-03-13T00:45:21.066Z,88.61
2019-03-13T00:46:21.056Z,88.40
2019-03-13T00:47:21.045Z,89.34
2019-03-13T00:48:21.031Z,90.00
2019-03-13T00:49:21.037Z,90.00
2019-03-13T00:50:21.015Z,89.48
2019-03-13T00:51:20.999Z,91.24
2019-03-13T00:52:20.989Z,90.00
2019-03-13T00:53:20.980Z,90.72
2019-03-13T00:54:20.970Z,91.66
2019-03-13T00:55:20.978Z,92.59
2019-03-13T00:56:20.948Z,91.35
2019-03-13T00:57:20.945Z,90.62
2019-03-13T00:58:20.925Z,89.69
2019-03-13T00:59:20.922Z,90.04
2019-03-13T01:00:20.906Z,90.83
2019-03-13T01:01:20.919Z,90.31
2019-03-13T01:02:20.884Z,88.96
2019-03-13T01:03:20.875Z,90.52
2019-03-13T01:04:20.868Z,90.00
2019-03-13T01:05:20.852Z,90.00
2019-03-13T01:06:20.839Z,89.83
2019-03-13T01:07:20.839Z,90.25
2019-03-13T01:08:20.820Z,90.10
2019-03-13T01:09:20.808Z,91.08
2019-03-13T01:10:20.798Z,90.77
2019-03-13T01:11:20.797Z,91.39
2019-03-13T01:12:20.772Z,91.39
2019-03-13T01:13:20.780Z,90.66
2019-03-13T01:14:20.753Z,91.39
2019-03-13T01:15:20.743Z,90.25
2019-03-13T01:16:20.735Z,90.04
2019-03-13T01:17:20.721Z,90.45
2019-03-13T01:18:20.711Z,90.77
2019-03-13T01:19:20.717Z,90.04
2019-03-13T01:20:20.686Z,90.14
2019-03-13T01:21:20.680Z,89.73
2019-03-13T01:22:20.670Z,88.90
2019-03-13T01:23:20.657Z,89.73
2019-03-13T01:24:20.648Z,89.73
2019-03-13T01:25:20.650Z,89.73
2019-03-13T01:26:20.625Z,88.18
2019-03-13T01:27:20.616Z,89.11
2019-03-13T01:28:20.610Z,90.45
2019-03-13T01:29:20.593Z,89.11
2019-03-13T01:30:20.583Z,89.73
2019-03-13T01:31:20.591Z,89.21
2019-03-13T01:32:20.569Z,89.31
2019-03-13T01:33:20.548Z,90.04
2019-03-13T01:34:20.539Z,89.83
2019-03-13T01:35:20.529Z,89.62
2019-03-13T01:36:20.516Z,90.35
2019-03-13T01:37:20.606Z,90.04
2019-03-13T01:38:20.498Z,90.35
2019-03-13T01:39:20.484Z,90.04
2019-03-13T01:40:20.479Z,91.12
2019-03-13T01:41:20.462Z,90.77
2019-03-13T01:42:20.455Z,90.19
2019-03-13T01:43:20.474Z,88.07
2019-03-13T01:44:20.432Z,87.66
2019-03-13T01:45:20.421Z,90.04
2019-03-13T01:46:20.412Z,90.04
2019-03-13T01:47:20.399Z,89.31
2019-03-13T01:48:20.392Z,88.48
2019-03-13T01:49:20.393Z,89.62
2019-03-13T01:50:20.369Z,89.11
2019-03-13T01:51:20.354Z,88.28
2019-03-13T01:52:20.348Z,86.21
2019-03-13T01:53:20.336Z,85.75
2019-03-13T01:54:20.329Z,84.82
2019-03-13T01:55:20.334Z,85.44
2019-03-13T01:56:20.303Z,85.34
2019-03-13T01:57:20.293Z,84.72
2019-03-13T01:58:20.281Z,86.17
2019-03-13T01:59:20.271Z,86.68
2019-03-13T02:00:20.263Z,86.17
2019-03-13T02:01:20.351Z,86.00
2019-03-13T02:02:20.239Z,84.20
2019-03-13T02:03:20.228Z,83.16
2019-03-13T02:04:20.217Z,83.47
2019-03-13T02:05:20.209Z,83.06
2019-03-13T02:06:20.199Z,83.16
2019-03-13T02:07:20.204Z,83.47
2019-03-13T02:08:20.175Z,83.16
2019-03-13T02:09:20.163Z,84.51
2019-03-13T02:10:20.153Z,83.06
2019-03-13T02:11:20.143Z,83.89
2019-03-13T02:12:20.135Z,84.72
2019-03-13T02:13:20.137Z,83.58
2019-03-13T02:14:20.192Z,83.58
2019-03-13T02:15:20.099Z,83.58
2019-03-13T02:16:20.089Z,85.86
2019-03-13T02:17:20.078Z,86.17
2019-03-13T02:18:20.067Z,84.13
2019-03-13T02:19:20.073Z,84.23
2019-03-13T02:20:20.047Z,82.37
2019-03-13T02:21:20.035Z,83.58
2019-03-13T02:22:20.024Z,84.51
2019-03-13T02:23:20.014Z,84.72
2019-03-13T02:24:20.004Z,83.10
2019-03-13T02:25:20.009Z,84.13
2019-03-13T02:26:19.982Z,84.86
2019-03-13T02:27:19.973Z,84.96
2019-03-13T02:28:19.960Z,85.38
2019-03-13T02:29:19.950Z,84.55
2019-03-13T02:30:20.088Z,84.55
2019-03-13T02:31:20.033Z,82.58
2019-03-13T02:32:19.921Z,81.96
2019-03-13T02:33:19.910Z,80.61
2019-03-13T02:34:19.901Z,81.75
2019-03-13T02:35:19.924Z,82.06
2019-03-13T02:36:19.874Z,80.92
2019-03-13T02:37:19.881Z,79.78
2019-03-13T02:38:19.857Z,79.99
2019-03-13T02:39:19.841Z,80.71
2019-03-13T02:40:19.827Z,80.92
2019-03-13T02:41:19.824Z,82.10
2019-03-13T02:42:19.811Z,81.79
2019-03-13T02:43:19.818Z,82.62
2019-03-13T02:44:19.790Z,83.38
2019-03-13T02:45:19.779Z,82.14
2019-03-13T02:46:19.767Z,81.62
2019-03-13T02:47:19.788Z,82.41
2019-03-13T02:48:19.747Z,82.31
2019-03-13T02:49:19.751Z,82.31
2019-03-13T02:50:19.726Z,82.93
2019-03-13T02:51:19.717Z,82.51
2019-03-13T02:52:19.703Z,82.41
2019-03-13T02:53:19.693Z,81.34
2019-03-13T02:54:19.683Z,80.85
2019-03-13T02:55:19.687Z,81.27
2019-03-13T02:56:19.662Z,82.41
2019-03-13T02:57:19.652Z,82.20
2019-03-13T02:58:19.677Z,82.82
2019-03-13T02:59:19.628Z,83.34
2019-03-13T03:00:19.623Z,82.41
2019-03-13T03:01:19.632Z,82.65
2019-03-13T03:02:19.600Z,82.76
2019-03-13T03:03:19.594Z,82.24
2019-03-13T03:04:19.576Z,82.72
2019-03-13T03:05:19.564Z,81.27
2019-03-13T03:06:19.560Z,81.58
2019-03-13T03:07:19.561Z,81.58
2019-03-13T03:08:19.532Z,79.82
2019-03-13T03:09:19.553Z,80.54
2019-03-13T03:10:19.513Z,81.37
2019-03-13T03:11:19.504Z,80.65
2019-03-13T03:12:19.490Z,81.27
2019-03-13T03:13:19.493Z,82.93
2019-03-13T03:14:19.478Z,82.31
2019-03-13T03:15:19.458Z,81.16
2019-03-13T03:16:19.449Z,83.24
2019-03-13T03:17:19.437Z,81.27
2019-03-13T03:18:19.426Z,81.16
2019-03-13T03:19:19.430Z,82.31
2019-03-13T03:20:19.411Z,80.65
2019-03-13T03:21:19.399Z,82.31
2019-03-13T03:22:19.383Z,81.48
2019-03-13T03:23:19.374Z,82.17
2019-03-13T03:24:19.365Z,83.03
2019-03-13T03:25:19.368Z,80.44
2019-03-13T03:26:19.343Z,80.33
2019-03-13T03:27:19.335Z,80.71
2019-03-13T03:28:26.404Z,80.51
2019-03-13T03:29:19.360Z,81.58
2019-03-13T03:30:19.324Z,81.75
2019-03-13T03:31:19.327Z,81.44
2019-03-13T03:32:19.282Z,80.51
2019-03-13T03:33:19.280Z,81.06
2019-03-13T03:34:19.338Z,80.30
2019-03-13T03:35:19.282Z,80.02
2019-03-13T03:36:19.239Z,79.99
2019-03-13T03:37:19.275Z,81.34
2019-03-13T03:38:19.232Z,80.40
2019-03-13T03:39:19.227Z,80.51
2019-03-13T03:40:22.363Z,80.61
2019-03-13T03:41:19.180Z,80.09
2019-03-13T03:42:19.175Z,79.78
2019-03-13T03:43:19.197Z,80.30
2019-03-13T03:44:19.175Z,79.99
2019-03-13T03:45:19.154Z,80.82
2019-03-13T03:46:19.127Z,81.23
2019-03-13T03:47:19.114Z,80.61
2019-03-13T03:48:19.111Z,79.88
2019-03-13T03:49:19.125Z,79.16
2019-03-13T03:50:19.106Z,79.16
2019-03-13T03:51:19.086Z,79.99
2019-03-13T03:52:19.072Z,80.51
2019-03-13T03:53:19.060Z,79.78
2019-03-13T03:54:19.058Z,79.99
2019-03-13T03:55:19.063Z,78.23
2019-03-13T03:56:19.196Z,77.61
2019-03-13T03:57:19.011Z,77.78
2019-03-13T03:58:18.999Z,78.54
2019-03-13T03:59:19.006Z,77.81
2019-03-13T04:00:18.999Z,79.27
2019-03-13T04:01:19.001Z,79.78
2019-03-13T04:02:18.984Z,79.16
2019-03-13T04:03:18.945Z,78.64
2019-03-13T04:04:18.939Z,78.75
2019-03-13T04:05:18.942Z,79.33
2019-03-13T04:06:18.924Z,77.81
2019-03-13T04:07:19.013Z,77.78
2019-03-13T04:08:18.907Z,77.57
2019-03-13T04:09:18.894Z,78.30
2019-03-13T04:10:18.873Z,77.26
2019-03-13T04:11:18.858Z,77.47
2019-03-13T04:12:18.857Z,77.15
2019-03-13T04:13:18.882Z,77.26
2019-03-13T04:14:18.825Z,77.15
2019-03-13T04:15:18.905Z,77.67
2019-03-13T04:16:18.807Z,77.50
2019-03-13T04:17:18.799Z,78.33
2019-03-13T04:18:18.789Z,77.71
2019-03-13T04:19:19.266Z,77.92
2019-03-13T04:20:18.776Z,78.64
2019-03-13T04:21:18.772Z,77.29
2019-03-13T04:22:18.796Z,76.88
2019-03-13T04:23:18.734Z,76.61
2019-03-13T04:24:18.710Z,77.75
2019-03-13T04:25:18.729Z,77.12
2019-03-13T04:26:18.699Z,77.12
2019-03-13T04:27:18.687Z,76.19
2019-03-13T04:28:18.691Z,77.12
2019-03-13T04:29:18.664Z,78.06
2019-03-13T04:30:18.664Z,77.54
2019-03-13T04:31:18.664Z,76.19
2019-03-13T04:32:18.635Z,76.26
2019-03-13T04:33:18.632Z,75.53
2019-03-13T04:34:18.628Z,75.84
2019-03-13T04:35:18.614Z,75.63
2019-03-13T04:36:18.588Z,76.26
2019-03-13T04:37:18.597Z,75.84
2019-03-13T04:38:18.567Z,75.63
2019-03-13T04:39:18.560Z,75.02
2019-03-13T04:40:18.542Z,75.22
2019-03-13T04:41:18.544Z,75.74
2019-03-13T04:42:18.527Z,75.22
2019-03-13T04:43:18.544Z,77.09
2019-03-13T04:44:18.525Z,75.84
2019-03-13T04:45:18.492Z,76.36
2019-03-13T04:46:18.479Z,75.98
2019-03-13T04:47:18.469Z,77.44
2019-03-13T04:48:18.472Z,76.19
2019-03-13T04:49:18.510Z,76.75
2019-03-13T04:50:18.444Z,77.37
2019-03-13T04:51:18.459Z,76.95
2019-03-13T04:52:18.427Z,77.37
2019-03-13T04:53:18.410Z,77.58
2019-03-13T04:54:18.490Z,75.81
2019-03-13T04:55:18.406Z,76.23
2019-03-13T04:56:18.373Z,77.16
2019-03-13T04:57:18.429Z,77.58
2019-03-13T04:58:18.383Z,76.99
2019-03-13T04:59:18.341Z,76.06
2019-03-13T05:00:18.335Z,76.89
2019-03-13T05:01:18.430Z,76.57
2019-03-13T05:02:18.316Z,75.85
2019-03-13T05:03:18.313Z,75.85
2019-03-13T05:04:18.287Z,77.09
2019-03-13T05:05:18.277Z,76.06
2019-03-13T05:06:18.271Z,77.30
2019-03-13T05:07:18.273Z,76.99
2019-03-13T05:08:18.252Z,76.06
2019-03-13T05:09:18.239Z,75.85
2019-03-13T05:10:18.245Z,76.33
2019-03-13T05:11:18.220Z,74.57
2019-03-13T05:12:18.227Z,74.77
2019-03-13T05:13:18.216Z,74.05
2019-03-13T05:14:18.198Z,73.60
2019-03-13T05:15:18.186Z,74.05
2019-03-13T05:16:18.182Z,74.36
2019-03-13T05:17:18.162Z,75.09
2019-03-13T05:18:18.140Z,74.46
2019-03-13T05:19:18.169Z,74.15
2019-03-13T05:20:18.121Z,73.57
2019-03-13T05:21:18.108Z,74.26
2019-03-13T05:22:18.104Z,74.05
2019-03-13T05:23:18.089Z,73.32
2019-03-13T05:24:18.086Z,73.43
2019-03-13T05:25:19.365Z,74.98
2019-03-13T05:26:18.058Z,73.74
2019-03-13T05:27:18.068Z,74.26
2019-03-13T05:28:18.055Z,74.15
2019-03-13T05:29:18.025Z,75.71
2019-03-13T05:30:18.019Z,74.91
2019-03-13T05:31:18.028Z,75.12
2019-03-13T05:32:18.023Z,74.74
2019-03-13T05:33:17.987Z,74.19
2019-03-13T05:34:17.969Z,74.95
2019-03-13T05:35:17.962Z,75.33
2019-03-13T05:36:17.950Z,76.29
2019-03-13T05:37:17.972Z,76.09
2019-03-13T05:38:17.933Z,75.98
2019-03-13T05:39:17.924Z,75.15
2019-03-13T05:40:17.982Z,75.26
2019-03-13T05:41:17.897Z,76.61
2019-03-13T05:42:17.896Z,76.81
2019-03-13T05:43:17.898Z,76.61
2019-03-13T05:44:17.865Z,77.26
2019-03-13T05:45:17.862Z,76.81
2019-03-13T05:46:17.843Z,77.44
2019-03-13T05:47:17.833Z,77.33
2019-03-13T05:48:17.829Z,77.33
2019-03-13T05:49:17.845Z,77.64
2019-03-13T05:50:17.812Z,77.44
2019-03-13T05:51:17.796Z,77.51
2019-03-13T05:52:17.781Z,78.23
2019-03-13T05:53:17.767Z,77.82
2019-03-13T05:54:17.761Z,78.51
2019-03-13T05:55:17.761Z,78.34
2019-03-13T05:56:17.745Z,77.92
2019-03-13T05:57:17.751Z,77.26
2019-03-13T05:58:17.813Z,78.41
2019-03-13T05:59:17.730Z,77.16
2019-03-13T06:00:17.704Z,78.06
2019-03-13T06:01:17.719Z,77.23
2019-03-13T06:02:17.674Z,77.23
2019-03-13T06:03:17.694Z,78.37
2019-03-13T06:04:17.652Z,79.20
2019-03-13T06:05:17.712Z,80.23
2019-03-13T06:06:17.678Z,81.79
2019-03-13T06:07:17.674Z,82.24
2019-03-13T06:08:18.677Z,84.11
2019-03-13T06:09:17.612Z,84.67
2019-03-13T06:10:17.590Z,84.91
2019-03-13T06:11:17.583Z,86.41
2019-03-13T06:12:17.567Z,88.02
2019-03-13T06:13:17.606Z,88.17
2019-03-13T06:14:17.594Z,88.52
2019-03-13T06:15:17.575Z,89.98
2019-03-13T06:16:17.526Z,91.49
2019-03-13T06:17:17.516Z,92.26
2019-03-13T06:18:17.509Z,93.20
2019-03-13T06:19:17.501Z,92.88
2019-03-13T06:20:17.500Z,93.10
2019-03-13T06:21:17.471Z,93.03
2019-03-13T06:22:17.468Z,92.78
2019-03-13T06:23:17.456Z,92.10
2019-03-13T06:24:17.442Z,93.10
2019-03-13T06:25:17.446Z,92.68
2019-03-13T06:26:17.441Z,92.72
2019-03-13T06:27:17.416Z,93.66
2019-03-13T06:28:17.406Z,93.55
2019-03-13T06:29:17.396Z,93.03
2019-03-13T06:30:17.377Z,93.03
2019-03-13T06:31:17.400Z,93.80
2019-03-13T06:32:17.361Z,94.22
2019-03-13T06:33:17.347Z,93.97
2019-03-13T06:34:17.343Z,94.53
2019-03-13T06:35:17.332Z,94.38
2019-03-13T06:36:17.339Z,94.53
2019-03-13T06:37:17.322Z,94.22
2019-03-13T06:38:17.364Z,94.53
2019-03-13T06:39:17.285Z,94.43
2019-03-13T06:40:17.277Z,94.22
2019-03-13T06:41:17.278Z,94.74
2019-03-13T06:42:17.262Z,93.91
2019-03-13T06:43:17.305Z,93.80
2019-03-13T06:44:17.229Z,94.22
2019-03-13T06:45:17.213Z,94.43
2019-03-13T06:46:17.233Z,95.57
2019-03-13T06:47:17.197Z,94.95
2019-03-13T06:48:17.181Z,95.05
2019-03-13T06:49:17.197Z,94.84
2019-03-13T06:50:17.161Z,94.43
2019-03-13T06:51:17.162Z,94.43
2019-03-13T06:52:17.147Z,94.32
2019-03-13T06:53:17.136Z,94.32
2019-03-13T06:54:17.123Z,93.97
2019-03-13T06:55:17.127Z,94.07
2019-03-13T06:56:17.097Z,93.55
2019-03-13T06:57:17.088Z,93.66
2019-03-13T06:58:17.085Z,93.55
2019-03-13T06:59:17.065Z,93.41
2019-03-13T07:00:17.057Z,93.72
2019-03-13T07:01:17.062Z,93.93
2019-03-13T07:02:17.053Z,93.72
2019-03-13T07:03:17.029Z,93.62
2019-03-13T07:04:17.014Z,92.99
2019-03-13T07:05:17.009Z,92.16
2019-03-13T07:06:16.995Z,91.95
2019-03-13T07:07:16.998Z,92.63
2019-03-13T07:08:16.985Z,92.63
2019-03-13T07:09:16.986Z,91.28
2019-03-13T07:10:16.949Z,91.39
2019-03-13T07:11:16.947Z,91.28
2019-03-13T07:12:16.933Z,91.60
2019-03-13T07:13:16.943Z,91.91
2019-03-13T07:14:16.905Z,92.22
2019-03-13T07:15:16.905Z,92.53
2019-03-13T07:16:16.951Z,93.26
2019-03-13T07:17:16.904Z,92.74
2019-03-13T07:18:16.864Z,92.63
2019-03-13T07:19:16.880Z,91.95
2019-03-13T07:20:16.844Z,92.11
2019-03-13T07:21:16.905Z,92.43
2019-03-13T07:22:16.824Z,92.11
2019-03-13T07:23:16.831Z,91.70
2019-03-13T07:24:16.812Z,90.83
2019-03-13T07:25:16.811Z,89.31
2019-03-13T07:26:16.779Z,81.79
2019-03-13T07:27:16.766Z,76.31
2019-03-13T07:28:16.761Z,74.15
2019-03-13T07:29:16.780Z,67.49
2019-03-13T07:30:16.738Z,68.13
2019-03-13T07:31:16.747Z,67.93
2019-03-13T07:32:16.709Z,66.36
2019-03-13T07:33:16.706Z,65.23
2019-03-13T07:34:16.693Z,66.50
2019-03-13T07:35:16.693Z,63.94
2019-03-13T07:36:16.674Z,66.77
2019-03-13T07:37:16.680Z,64.40
2019-03-13T07:38:16.664Z,66.07
2019-03-13T07:39:16.645Z,67.47
2019-03-13T07:40:16.626Z,70.41
2019-03-13T07:41:16.632Z,75.43
2019-03-13T07:42:16.610Z,70.35
2019-03-13T07:43:16.612Z,69.97
2019-03-13T07:44:16.587Z,65.39
2019-03-13T07:45:16.577Z,63.82
2019-03-13T07:46:16.562Z,63.06
2019-03-13T07:47:16.565Z,64.75
2019-03-13T07:48:16.588Z,62.40
2019-03-13T07:49:16.566Z,61.96
2019-03-13T07:50:16.523Z,65.31
2019-03-13T07:51:16.507Z,60.11
2019-03-13T07:52:16.497Z,60.89
2019-03-13T07:53:16.488Z,54.46
2019-03-13T07:54:16.533Z,54.18
2019-03-13T07:55:16.498Z,55.94
2019-03-13T07:56:16.455Z,54.21
2019-03-13T07:57:16.445Z,58.83
2019-03-13T07:58:16.430Z,60.84
2019-03-13T07:59:16.423Z,60.44
2019-03-13T08:00:16.427Z,64.95
2019-03-13T08:01:16.422Z,65.98
2019-03-13T08:02:16.401Z,61.32
2019-03-13T08:03:16.377Z,64.32
2019-03-13T08:04:16.368Z,63.12
2019-03-13T08:05:16.363Z,66.44
2019-03-13T08:06:16.345Z,66.03
2019-03-13T08:07:16.356Z,62.97
2019-03-13T08:08:16.336Z,62.28
2019-03-13T08:09:16.321Z,64.34
2019-03-13T08:10:16.300Z,66.61
2019-03-13T08:11:16.291Z,64.96
2019-03-13T08:12:16.281Z,65.99
2019-03-13T08:13:16.327Z,65.50
2019-03-13T08:14:16.258Z,61.49
2019-03-13T08:15:16.246Z,60.21
2019-03-13T08:16:16.253Z,60.27
2019-03-13T08:17:16.236Z,64.54
2019-03-13T08:18:16.218Z,63.42
2019-03-13T08:19:16.228Z,66.61
2019-03-13T08:20:16.223Z,64.99
2019-03-13T08:21:16.182Z,65.50
2019-03-13T08:22:16.167Z,67.49
2019-03-13T08:23:16.161Z,65.46
2019-03-13T08:24:16.161Z,65.91
2019-03-13T08:25:16.306Z,67.66
2019-03-13T08:26:16.128Z,68.14
2019-03-13T08:27:16.115Z,65.05
2019-03-13T08:28:16.150Z,68.96
2019-03-13T08:29:16.094Z,66.21
2019-03-13T08:30:16.085Z,66.83
2019-03-13T08:31:16.084Z,68.48
2019-03-13T08:32:16.096Z,67.55
2019-03-13T08:33:16.050Z,66.31
2019-03-13T08:34:16.038Z,62.18
2019-03-13T08:35:16.035Z,58.39
2019-03-13T08:36:16.026Z,55.13
2019-03-13T08:37:16.032Z,51.76
2019-03-13T08:38:15.995Z,52.93
2019-03-13T08:39:15.991Z,48.19
2019-03-13T08:40:15.978Z,48.35
2019-03-13T08:41:15.968Z,45.45
2019-03-13T08:42:15.952Z,48.50
2019-03-13T08:43:15.965Z,46.98
2019-03-13T08:44:15.955Z,50.56
2019-03-13T08:45:15.956Z,49.10
2019-03-13T08:46:15.908Z,47.69
2019-03-13T08:47:15.898Z,48.16
2019-03-13T08:48:15.893Z,46.30
2019-03-13T08:49:15.888Z,43.94
2019-03-13T08:50:15.868Z,48.49
2019-03-13T08:51:15.868Z,48.42
2019-03-13T08:52:15.840Z,44.98
2019-03-13T08:53:15.836Z,44.61
2019-03-13T08:54:15.843Z,47.30
2019-03-13T08:55:15.824Z,46.22
2019-03-13T08:56:15.796Z,46.10
2019-03-13T08:57:15.789Z,46.67
2019-03-13T08:58:15.776Z,48.77
2019-03-13T08:59:15.770Z,45.42
2019-03-13T09:00:15.755Z,44.87
2019-03-13T09:01:15.779Z,46.44
2019-03-13T09:02:15.731Z,43.10
2019-03-13T09:03:15.719Z,43.59
2019-03-13T09:04:15.710Z,43.79
2019-03-13T09:05:15.697Z,42.02
2019-03-13T09:06:15.690Z,43.96
2019-03-13T09:07:15.700Z,42.94
2019-03-13T09:08:15.692Z,48.34
2019-03-13T09:09:15.667Z,47.58
2019-03-13T09:10:15.667Z,41.61
2019-03-13T09:11:15.673Z,42.22
2019-03-13T09:12:15.627Z,43.14
2019-03-13T09:13:15.627Z,40.62
2019-03-13T09:14:15.611Z,41.56
2019-03-13T09:15:15.598Z,39.55
2019-03-13T09:16:15.579Z,40.34
2019-03-13T09:17:15.582Z,41.12
2019-03-13T09:18:15.590Z,38.34
2019-03-13T09:19:15.601Z,42.37
2019-03-13T09:20:15.547Z,38.18
2019-03-13T09:21:15.521Z,37.76
2019-03-13T09:22:15.509Z,41.17
2019-03-13T09:23:15.518Z,40.78
2019-03-13T09:24:15.503Z,42.02
2019-03-13T09:25:15.502Z,40.65
2019-03-13T09:26:15.473Z,43.61
2019-03-13T09:27:15.470Z,42.50
2019-03-13T09:28:15.454Z,44.57
2019-03-13T09:30:08.004Z,45.23
2019-03-13T09:31:08.012Z,45.43
2019-03-13T09:32:07.985Z,43.51
2019-03-13T09:33:07.975Z,43.51
2019-03-13T09:34:07.964Z,45.25
2019-03-13T09:35:07.950Z,46.27
2019-03-13T09:36:07.946Z,46.15
2019-03-13T09:37:07.953Z,43.44
2019-03-13T09:38:07.919Z,43.98
2019-03-13T09:39:07.921Z,44.02
2019-03-13T09:40:07.898Z,46.09
2019-03-13T09:41:07.886Z,46.09
2019-03-13T09:42:07.876Z,46.26
2019-03-13T09:43:07.883Z,43.24
2019-03-13T09:44:07.864Z,46.84
2019-03-13T09:45:07.847Z,47.20
2019-03-13T09:46:07.831Z,46.19
2019-03-13T09:47:07.821Z,45.59
2019-03-13T09:48:07.812Z,45.57
2019-03-13T09:49:07.814Z,47.16
2019-03-13T09:50:07.788Z,47.38
2019-03-13T09:51:07.778Z,47.41
2019-03-13T09:52:07.768Z,48.04
2019-03-13T09:53:07.755Z,48.60
2019-03-13T09:54:07.746Z,48.81
2019-03-13T09:55:07.755Z,50.94
2019-03-13T09:56:07.724Z,50.04
2019-03-13T09:57:07.717Z,53.30
2019-03-13T09:58:07.704Z,50.30
2019-03-13T09:59:07.699Z,49.89
2019-03-13T10:00:07.689Z,49.69
2019-03-13T10:01:07.686Z,49.05
2019-03-13T10:02:07.663Z,48.51
2019-03-13T10:03:07.647Z,45.22
2019-03-13T10:04:07.647Z,43.61
2019-03-13T10:05:07.628Z,42.29
2019-03-13T10:06:07.618Z,42.88
2019-03-13T10:07:07.624Z,43.37
2019-03-13T10:08:07.595Z,43.26
2019-03-13T10:09:07.587Z,42.43
2019-03-13T10:10:07.664Z,43.88
2019-03-13T10:11:07.564Z,43.43
2019-03-13T10:12:07.553Z,43.04
2019-03-13T10:13:07.559Z,42.43
2019-03-13T10:14:07.528Z,43.02
2019-03-13T10:15:07.521Z,43.12
2019-03-13T10:16:07.510Z,43.63
2019-03-13T10:17:10.887Z,44.35
2019-03-13T10:18:07.493Z,43.84
2019-03-13T10:19:07.494Z,44.57
2019-03-13T10:20:07.466Z,45.72
2019-03-13T10:21:07.461Z,44.86
2019-03-13T10:22:07.445Z,46.31
2019-03-13T10:23:07.441Z,48.57
2019-03-13T10:24:07.421Z,46.42
2019-03-13T10:25:07.442Z,46.34
2019-03-13T10:26:07.402Z,47.69
2019-03-13T10:27:07.392Z,47.71
2019-03-13T10:28:07.382Z,48.64
2019-03-13T10:29:07.370Z,49.07
2019-03-13T10:30:07.366Z,49.23
2019-03-13T10:31:07.370Z,48.33
2019-03-13T10:32:07.342Z,51.41
2019-03-13T10:33:07.330Z,50.26
2019-03-13T10:34:07.317Z,50.34
2019-03-13T10:35:07.309Z,47.50
2019-03-13T10:36:07.300Z,48.55
2019-03-13T10:37:07.303Z,46.47
2019-03-13T10:38:13.862Z,46.11
2019-03-13T10:39:08.260Z,48.50
2019-03-13T10:40:07.251Z,46.55
2019-03-13T10:41:07.242Z,43.16
2019-03-13T10:42:07.232Z,43.61
2019-03-13T10:43:07.242Z,42.22
2019-03-13T10:44:07.226Z,41.31
2019-03-13T10:45:07.203Z,40.18
2019-03-13T10:46:07.184Z,40.42
2019-03-13T10:47:07.178Z,39.84
2019-03-13T10:48:07.174Z,39.10
2019-03-13T10:49:07.171Z,40.48
2019-03-13T10:50:07.146Z,42.68
2019-03-13T10:51:07.133Z,41.70
2019-03-13T10:52:07.121Z,39.78
2019-03-13T10:53:07.116Z,36.93
2019-03-13T10:54:07.101Z,38.79
2019-03-13T10:55:07.126Z,41.58
2019-03-13T10:56:07.082Z,41.61
2019-03-13T10:57:07.069Z,43.14
2019-03-13T10:58:07.059Z,44.61
2019-03-13T10:59:07.052Z,46.09
2019-03-13T11:00:07.033Z,50.13
2019-03-13T11:01:07.043Z,49.95
2019-03-13T11:02:07.014Z,52.02
2019-03-13T11:03:07.004Z,56.74
2019-03-13T11:04:06.995Z,57.39
2019-03-13T11:05:06.982Z,60.75
2019-03-13T11:06:06.972Z,65.52
2019-03-13T11:07:06.981Z,67.68
2019-03-13T11:08:06.955Z,65.23
2019-03-13T11:09:06.940Z,63.13
2019-03-13T11:10:06.927Z,56.60
2019-03-13T11:11:06.923Z,58.15
2019-03-13T11:12:06.915Z,52.58
2019-03-13T11:13:06.915Z,57.68
2019-03-13T11:14:15.642Z,50.04
2019-03-13T11:15:07.872Z,48.36
2019-03-13T11:16:06.863Z,45.65
2019-03-13T11:17:06.855Z,51.31
2019-03-13T11:18:06.845Z,54.44
2019-03-13T11:19:06.848Z,54.97
2019-03-13T11:20:06.845Z,53.89
2019-03-13T11:21:06.811Z,54.18
2019-03-13T11:22:06.797Z,48.80
2019-03-13T11:23:06.788Z,45.72
2019-03-13T11:24:06.778Z,50.09
2019-03-13T11:25:06.789Z,47.14
2019-03-13T11:26:06.756Z,46.20
2019-03-13T11:27:06.749Z,47.52
2019-03-13T11:28:06.733Z,47.50
2019-03-13T11:29:06.723Z,49.96
2019-03-13T11:30:06.718Z,47.12
2019-03-13T11:31:06.723Z,43.35
2019-03-13T11:32:06.695Z,43.91
2019-03-13T11:33:06.679Z,43.85
2019-03-13T11:34:06.673Z,43.00
2019-03-13T11:35:06.657Z,43.75
2019-03-13T11:36:06.647Z,46.29
2019-03-13T11:37:06.743Z,47.16
2019-03-13T11:38:06.627Z,43.06
2019-03-13T11:39:06.616Z,39.40
2019-03-13T11:40:06.606Z,42.04
2019-03-13T11:41:06.594Z,40.74
2019-03-13T11:42:06.583Z,42.51
2019-03-13T11:43:06.586Z,40.17
2019-03-13T11:44:06.638Z,43.16
2019-03-13T11:45:06.552Z,43.57
2019-03-13T11:46:06.539Z,43.06
2019-03-13T11:47:06.529Z,38.24
2019-03-13T11:48:06.522Z,39.40
2019-03-13T11:49:06.616Z,35.95
2019-03-13T11:50:06.494Z,37.05
2019-03-13T11:51:06.487Z,39.17
2019-03-13T11:52:06.483Z,38.48
2019-03-13T11:53:06.469Z,34.11
2019-03-13T11:54:06.456Z,33.96
2019-03-13T11:55:06.464Z,35.61
2019-03-13T11:56:06.433Z,36.22
2019-03-13T11:57:06.420Z,37.41
2019-03-13T11:58:06.411Z,36.47
2019-03-13T11:59:06.400Z,36.85
2019-03-13T12:00:06.485Z,36.87
2019-03-13T12:01:06.399Z,36.87
2019-03-13T12:02:06.369Z,36.04
2019-03-13T12:03:06.358Z,36.63
2019-03-13T12:04:06.347Z,36.59
2019-03-13T12:05:06.335Z,33.97
2019-03-13T12:06:06.324Z,36.59
2019-03-13T12:07:06.331Z,34.48
2019-03-13T12:08:06.303Z,35.17
2019-03-13T12:09:06.292Z,33.77
2019-03-13T12:10:06.279Z,37.71
2019-03-13T12:11:06.270Z,37.66
2019-03-13T12:12:06.260Z,37.51
2019-03-13T12:13:06.347Z,35.36
2019-03-13T12:14:06.238Z,36.14
2019-03-13T12:15:06.225Z,37.32
2019-03-13T12:16:06.216Z,36.88
2019-03-13T12:17:06.209Z,35.12
2019-03-13T12:18:06.197Z,35.11
2019-03-13T12:19:06.201Z,36.10
2019-03-13T12:20:06.174Z,35.04
2019-03-13T12:21:06.165Z,34.72
2019-03-13T12:22:06.152Z,35.73
2019-03-13T12:23:06.142Z,36.12
2019-03-13T12:24:06.134Z,36.51
2019-03-13T12:25:06.139Z,37.92
2019-03-13T12:26:06.110Z,38.93
2019-03-13T12:27:06.102Z,39.87
2019-03-13T12:28:06.087Z,42.06
2019-03-13T12:29:06.079Z,44.76
2019-03-13T12:30:06.068Z,44.26
2019-03-13T12:31:06.068Z,47.30
2019-03-13T12:32:06.047Z,54.72
2019-03-13T12:33:06.031Z,57.13
2019-03-13T12:34:06.024Z,60.70
2019-03-13T12:35:06.012Z,65.56
2019-03-13T12:36:06.002Z,66.34
2019-03-13T12:37:06.010Z,70.18
2019-03-13T12:38:05.982Z,71.55
2019-03-13T12:39:05.970Z,72.41
2019-03-13T12:40:05.961Z,72.09
2019-03-13T12:41:05.991Z,72.54
2019-03-13T12:42:05.938Z,71.86
2019-03-13T12:43:05.943Z,70.15
2019-03-13T12:44:05.917Z,66.38
2019-03-13T12:45:05.906Z,70.14
2019-03-13T12:46:05.891Z,70.31
2019-03-13T12:47:05.884Z,70.37
2019-03-13T12:48:16.200Z,76.97
2019-03-13T12:49:06.875Z,73.95
2019-03-13T12:50:05.852Z,72.16
2019-03-13T12:51:05.843Z,74.05
2019-03-13T12:52:05.829Z,75.39
2019-03-13T12:53:05.822Z,75.43